createdAt,value
2023-07-14T00:00:43.895Z,2.47
2023-07-14T00:11:27.622Z,2.83
2023-07-14T00:16:49.742Z,3.60
2023-07-14T00:22:16.666Z,2.40
2023-07-14T00:27:38.748Z,2.13
2023-07-14T00:33:00.660Z,1.92
2023-07-14T00:38:23.102Z,1.45
2023-07-14T00:43:45.904Z,1.65
2023-07-14T00:49:15.168Z,2.05
2023-07-14T00:54:51.247Z,2.22
2023-07-14T01:00:25.567Z,1.90
2023-07-14T01:05:47.455Z,1.00
2023-07-14T01:11:09.481Z,2.92
2023-07-14T01:16:32.783Z,1.10
2023-07-14T01:22:06.346Z,2.85
2023-07-14T01:27:28.239Z,1.90
2023-07-14T01:32:52.471Z,1.58
2023-07-14T01:38:15.211Z,2.15
2023-07-14T01:43:37.725Z,1.85
2023-07-14T01:49:04.431Z,1.70
2023-07-14T01:54:52.698Z,1.90
2023-07-14T02:00:15.615Z,1.65
2023-07-14T02:05:39.575Z,1.55
2023-07-14T02:11:01.689Z,1.33
2023-07-14T02:16:25.363Z,1.50
2023-07-14T02:21:48.088Z,3.65
2023-07-14T02:27:12.908Z,2.15
2023-07-14T02:32:39.277Z,1.70
2023-07-14T02:38:04.859Z,1.67
2023-07-14T02:43:26.986Z,1.60
2023-07-14T02:48:51.721Z,1.50
2023-07-14T02:54:13.754Z,1.93
2023-07-14T02:59:35.669Z,1.33
2023-07-14T03:04:57.603Z,1.80
2023-07-14T03:10:19.660Z,1.08
2023-07-14T03:15:43.950Z,1.27
2023-07-14T03:21:06.743Z,1.33
2023-07-14T03:26:28.633Z,4.43
2023-07-14T03:31:51.024Z,1.63
2023-07-14T03:37:14.122Z,1.83
2023-07-14T03:42:36.119Z,1.13
2023-07-14T03:47:58.136Z,1.70
2023-07-14T03:53:20.045Z,1.85
2023-07-14T03:58:43.393Z,2.67
2023-07-14T04:04:05.528Z,1.05
2023-07-14T04:09:27.655Z,1.63
2023-07-14T04:14:49.483Z,1.38
2023-07-14T04:20:12.088Z,1.42
2023-07-14T04:25:36.279Z,1.10
2023-07-14T04:30:59.752Z,1.83
2023-07-14T04:36:21.635Z,0.95
2023-07-14T04:41:43.520Z,1.30
2023-07-14T04:47:05.564Z,1.38
2023-07-14T04:52:28.869Z,1.42
2023-07-14T04:57:50.714Z,1.10
2023-07-14T05:03:12.901Z,1.00
2023-07-14T05:08:34.871Z,1.42
2023-07-14T05:13:56.883Z,1.30
2023-07-14T05:19:18.847Z,1.13
2023-07-14T05:24:40.816Z,1.30
2023-07-14T05:30:03.554Z,2.15
2023-07-14T05:35:26.458Z,3.08
2023-07-14T05:40:58.401Z,1.75
2023-07-14T05:46:20.838Z,3.38
2023-07-14T05:51:42.734Z,1.67
2023-07-14T05:57:04.921Z,1.50
2023-07-14T06:02:27.184Z,1.83
2023-07-14T06:07:49.288Z,1.73
2023-07-14T06:13:11.421Z,2.40
2023-07-14T06:18:33.306Z,1.80
2023-07-14T06:23:55.206Z,2.28
2023-07-14T06:29:17.585Z,2.10
2023-07-14T06:34:39.524Z,3.40
2023-07-14T06:40:01.477Z,2.85
2023-07-14T06:45:23.553Z,4.90
2023-07-14T06:50:46.514Z,2.28
2023-07-14T06:56:09.073Z,2.72
2023-07-14T07:01:30.997Z,3.67
2023-07-14T07:06:54.584Z,2.25
2023-07-14T07:12:16.550Z,3.67
2023-07-14T07:17:40.176Z,3.60
2023-07-14T07:23:02.281Z,2.22
2023-07-14T07:28:24.852Z,3.10
2023-07-14T07:33:46.917Z,4.85
2023-07-14T07:39:09.040Z,3.38
2023-07-14T07:44:32.351Z,2.72
2023-07-14T07:49:54.477Z,4.57
2023-07-14T07:55:16.588Z,3.63
2023-07-14T08:00:38.575Z,3.13
2023-07-14T08:06:04.824Z,3.45
2023-07-14T08:11:26.767Z,2.95
2023-07-14T08:16:48.958Z,3.05
2023-07-14T08:22:10.856Z,2.97
2023-07-14T08:27:32.716Z,3.92
2023-07-14T08:32:54.774Z,5.70
2023-07-14T08:38:16.806Z,4.22
2023-07-14T08:43:51.018Z,2.63
2023-07-14T08:49:27.918Z,4.82
2023-07-14T08:54:59.024Z,5.25
2023-07-14T09:00:36.509Z,3.90
2023-07-14T09:06:06.636Z,3.50
2023-07-14T09:11:42.506Z,6.40
2023-07-14T09:22:48.145Z,3.75
2023-07-14T09:28:41.189Z,6.28
2023-07-14T09:34:05.894Z,4.85
2023-07-14T09:39:38.483Z,3.17
2023-07-14T09:45:10.240Z,6.43
2023-07-14T09:50:36.752Z,2.72
2023-07-14T09:56:07.192Z,4.03
2023-07-14T10:01:32.932Z,3.92
2023-07-14T10:06:55.487Z,5.03
2023-07-14T10:12:17.952Z,5.25
2023-07-14T10:17:42.135Z,5.53
2023-07-14T10:23:04.117Z,5.50
2023-07-14T10:28:30.545Z,5.35
2023-07-14T10:33:55.424Z,5.45
2023-07-14T10:39:37.282Z,4.00
2023-07-14T10:45:00.123Z,4.75
2023-07-14T10:50:29.252Z,5.32
2023-07-14T10:55:56.290Z,6.63
2023-07-14T11:01:40.682Z,4.00
2023-07-14T11:07:04.296Z,4.60
2023-07-14T11:12:54.578Z,4.53
2023-07-14T11:18:19.280Z,3.95
2023-07-14T11:24:03.396Z,3.23
2023-07-14T11:29:28.115Z,3.35
2023-07-14T11:35:07.228Z,3.13
2023-07-14T11:40:38.001Z,3.25
2023-07-14T11:46:07.871Z,5.68
2023-07-14T11:51:53.610Z,2.28
2023-07-14T11:57:19.904Z,3.70
2023-07-14T12:02:50.188Z,4.68
2023-07-14T12:08:24.033Z,7.38
2023-07-14T12:13:52.639Z,5.05
2023-07-14T12:19:22.837Z,4.82
2023-07-14T12:24:50.446Z,5.07
2023-07-14T12:30:18.831Z,3.90
2023-07-14T12:35:40.890Z,4.15
2023-07-14T12:41:05.193Z,6.65
2023-07-14T12:46:37.962Z,4.93
2023-07-14T12:52:06.506Z,4.47
2023-07-14T12:57:31.926Z,3.53
2023-07-14T13:02:55.569Z,5.25
2023-07-14T13:08:21.675Z,4.55
2023-07-14T13:13:45.858Z,2.70
2023-07-14T13:19:28.490Z,7.28
2023-07-14T13:25:09.969Z,4.75
2023-07-14T13:30:33.445Z,3.70
2023-07-14T13:36:03.765Z,3.42
2023-07-14T13:41:29.146Z,5.63
2023-07-14T13:46:51.325Z,3.92
2023-07-14T13:52:23.017Z,4.75
2023-07-14T13:57:50.179Z,6.28
2023-07-14T14:03:13.421Z,7.53
2023-07-14T14:08:35.650Z,5.90
2023-07-14T14:13:57.753Z,9.27
2023-07-14T14:19:25.105Z,15.38
2023-07-14T14:24:47.709Z,5.50
2023-07-14T14:30:11.041Z,8.15
2023-07-14T14:35:36.153Z,7.95
2023-07-14T14:41:01.486Z,6.18
2023-07-14T14:46:24.587Z,5.10
2023-07-14T14:51:47.659Z,5.15
2023-07-14T14:57:16.531Z,5.78
2023-07-14T15:02:38.526Z,5.07
2023-07-14T15:08:00.849Z,5.32
2023-07-14T15:13:29.720Z,7.03
2023-07-14T15:18:51.635Z,9.82
2023-07-14T15:24:13.637Z,8.27
2023-07-14T15:29:35.600Z,8.38
2023-07-14T15:34:57.945Z,8.32
2023-07-14T15:40:23.166Z,5.07
2023-07-14T15:51:26.509Z,6.03
2023-07-14T15:56:48.553Z,7.30
2023-07-14T16:02:15.076Z,3.00
2023-07-14T16:07:39.106Z,6.55
2023-07-14T16:13:02.054Z,3.75
2023-07-14T16:18:24.051Z,2.47
2023-07-14T16:23:46.287Z,5.05
2023-07-14T16:29:11.938Z,6.50
2023-07-14T16:34:33.855Z,5.55
2023-07-14T16:39:55.907Z,7.28
2023-07-14T16:45:23.393Z,7.60
2023-07-14T16:50:47.476Z,6.22
2023-07-14T16:56:13.291Z,7.65
2023-07-14T17:01:35.990Z,5.40
2023-07-14T17:06:57.924Z,11.32
2023-07-14T17:12:20.614Z,6.07
2023-07-14T17:17:44.484Z,11.07
2023-07-14T17:23:06.946Z,7.65
2023-07-14T17:28:29.969Z,6.10
2023-07-14T17:33:52.820Z,4.20
2023-07-14T17:39:23.147Z,6.50
2023-07-14T17:44:48.103Z,7.82
2023-07-14T17:50:10.336Z,5.63
2023-07-14T17:55:33.005Z,7.25
2023-07-14T18:00:55.847Z,10.13
2023-07-14T18:06:22.791Z,6.38
2023-07-14T18:11:49.328Z,9.73
2023-07-14T18:17:15.954Z,11.18
2023-07-14T18:22:37.865Z,8.50
2023-07-14T18:28:01.214Z,10.32
2023-07-14T18:33:27.515Z,7.65
2023-07-14T18:38:49.689Z,5.95
2023-07-14T18:44:17.960Z,9.15
2023-07-14T18:49:40.388Z,10.80
2023-07-14T18:55:02.322Z,14.20
2023-07-14T19:00:24.274Z,6.53
2023-07-14T19:05:46.639Z,6.00
2023-07-14T19:11:17.883Z,9.23
2023-07-14T19:16:40.476Z,6.43
2023-07-14T19:22:02.639Z,6.65
2023-07-14T19:27:24.771Z,4.60
2023-07-14T19:32:48.018Z,4.65
2023-07-14T19:38:13.562Z,3.47
2023-07-14T19:43:35.448Z,4.53
2023-07-14T19:48:57.692Z,3.90
2023-07-14T19:54:21.592Z,4.75
2023-07-14T19:59:43.632Z,5.50
2023-07-14T20:05:16.196Z,8.60
2023-07-14T20:10:39.479Z,5.20
2023-07-14T20:16:01.712Z,5.07
2023-07-14T20:21:30.349Z,4.57
2023-07-14T20:26:52.408Z,7.05
2023-07-14T20:32:15.451Z,8.88
2023-07-14T20:37:37.332Z,14.00
2023-07-14T20:43:00.508Z,11.07
2023-07-14T20:48:24.777Z,12.05
2023-07-14T20:53:47.265Z,4.47
2023-07-14T20:59:09.139Z,5.00
2023-07-14T21:04:31.602Z,7.97
2023-07-14T21:09:53.602Z,3.35
2023-07-14T21:15:17.497Z,4.18
2023-07-14T21:20:40.874Z,6.60
2023-07-14T21:26:16.050Z,7.78
2023-07-14T21:31:41.144Z,3.60
2023-07-14T21:42:25.293Z,2.78
2023-07-14T21:47:48.193Z,4.75
2023-07-14T21:53:26.537Z,2.83
2023-07-14T21:58:49.202Z,3.97
2023-07-14T22:04:35.347Z,5.05
2023-07-14T22:15:22.369Z,3.67
2023-07-14T22:20:46.408Z,3.97
2023-07-14T22:26:18.481Z,5.30
2023-07-14T22:31:41.310Z,3.78
2023-07-14T22:37:03.159Z,3.97
2023-07-14T22:42:25.377Z,2.72
2023-07-14T22:47:47.545Z,3.60
2023-07-14T22:53:16.720Z,5.18
2023-07-14T22:58:38.593Z,3.22
2023-07-14T23:04:01.018Z,3.80
2023-07-14T23:09:23.922Z,2.30
2023-07-14T23:14:48.507Z,3.67
2023-07-14T23:20:15.196Z,5.50
2023-07-14T23:25:37.362Z,2.42
2023-07-14T23:30:59.238Z,2.17
2023-07-14T23:36:22.669Z,2.63
2023-07-14T23:41:44.976Z,3.30
2023-07-14T23:47:07.074Z,2.88
2023-07-14T23:52:33.179Z,2.50
2023-07-14T23:57:58.678Z,3.08
